createdAt,value
2022-10-29T00:00:56.339Z,12.78
2022-10-29T00:03:23.887Z,12.86
2022-10-29T00:05:57.550Z,12.90
2022-10-29T00:08:24.781Z,12.92
2022-10-29T00:10:51.567Z,12.85
2022-10-29T00:13:18.307Z,12.91
2022-10-29T00:15:44.946Z,13.03
2022-10-29T00:18:11.585Z,13.04
2022-10-29T00:20:38.203Z,12.85
2022-10-29T00:23:04.875Z,13.03
2022-10-29T00:25:31.551Z,12.92
2022-10-29T00:27:58.241Z,12.85
2022-10-29T00:30:24.855Z,12.97
2022-10-29T00:32:51.534Z,12.89
2022-10-29T00:35:18.272Z,12.94
2022-10-29T00:37:44.922Z,12.77
2022-10-29T00:40:12.189Z,12.90
2022-10-29T00:42:38.805Z,12.69
2022-10-29T00:45:06.178Z,12.85
2022-10-29T00:47:36.919Z,12.75
2022-10-29T00:50:09.380Z,12.81
2022-10-29T00:52:40.662Z,12.64
2022-10-29T00:55:10.598Z,12.70
2022-10-29T00:57:41.532Z,12.62
2022-10-29T01:00:08.981Z,12.60
2022-10-29T01:02:38.111Z,12.58
2022-10-29T01:05:06.049Z,12.42
2022-10-29T01:07:32.940Z,12.43
2022-10-29T01:09:59.688Z,12.36
2022-10-29T01:12:36.957Z,12.48
2022-10-29T01:15:28.388Z,12.45
2022-10-29T01:18:16.426Z,12.47
2022-10-29T01:21:13.331Z,12.50
2022-10-29T01:23:42.747Z,12.48
2022-10-29T01:26:27.596Z,12.48
2022-10-29T01:29:09.553Z,12.48
2022-10-29T01:31:50.960Z,12.46
2022-10-29T01:34:33.570Z,12.51
2022-10-29T01:37:08.029Z,12.41
2022-10-29T01:39:42.075Z,12.45
2022-10-29T01:42:15.215Z,12.55
2022-10-29T01:44:51.193Z,12.47
2022-10-29T01:47:22.801Z,12.64
2022-10-29T01:49:57.789Z,12.64
2022-10-29T01:52:27.383Z,12.68
2022-10-29T01:54:54.521Z,12.55
2022-10-29T01:57:34.077Z,12.53
2022-10-29T02:00:07.002Z,12.53
2022-10-29T02:03:02.484Z,12.54
2022-10-29T02:05:53.308Z,12.53
2022-10-29T02:08:53.202Z,12.53
2022-10-29T02:11:29.769Z,12.46
2022-10-29T02:14:07.756Z,12.49
2022-10-29T02:16:34.524Z,12.45
2022-10-29T02:19:01.373Z,12.42
2022-10-29T02:21:28.110Z,12.39
2022-10-29T02:23:54.788Z,12.36
2022-10-29T02:26:21.819Z,12.30
2022-10-29T02:28:48.517Z,12.22
2022-10-29T02:31:15.503Z,12.17
2022-10-29T02:33:42.116Z,12.16
2022-10-29T02:36:09.111Z,12.16
2022-10-29T02:38:35.748Z,12.10
2022-10-29T02:41:02.376Z,11.97
2022-10-29T02:43:28.986Z,12.16
2022-10-29T02:46:15.954Z,12.15
2022-10-29T02:48:43.048Z,12.14
2022-10-29T02:51:10.251Z,12.05
2022-10-29T02:53:37.200Z,12.10
2022-10-29T02:56:04.769Z,11.83
2022-10-29T02:58:31.909Z,12.07
2022-10-29T03:00:58.545Z,11.81
2022-10-29T03:03:25.284Z,11.89
2022-10-29T03:05:52.555Z,12.05
2022-10-29T03:08:19.516Z,12.07
2022-10-29T03:10:46.223Z,12.02
2022-10-29T03:13:13.041Z,11.97
2022-10-29T03:15:39.697Z,12.03
2022-10-29T03:18:06.321Z,12.03
2022-10-29T03:20:32.987Z,11.90
2022-10-29T03:22:59.600Z,12.05
2022-10-29T03:25:26.628Z,11.81
2022-10-29T03:27:53.448Z,11.96
2022-10-29T03:30:20.242Z,11.96
2022-10-29T03:32:48.012Z,11.90
2022-10-29T03:35:16.097Z,11.79
2022-10-29T03:37:43.094Z,11.85
2022-10-29T03:40:10.139Z,11.86
2022-10-29T03:42:38.329Z,11.85
2022-10-29T03:45:05.215Z,11.66
2022-10-29T03:47:33.487Z,11.88
2022-10-29T03:50:00.286Z,11.86
2022-10-29T03:52:27.075Z,11.82
2022-10-29T03:54:53.771Z,11.79
2022-10-29T03:57:20.456Z,11.94
2022-10-29T03:59:51.508Z,12.01
2022-10-29T04:02:19.649Z,12.09
2022-10-29T04:04:46.459Z,12.10
2022-10-29T04:07:13.388Z,12.15
2022-10-29T04:09:40.132Z,12.14
2022-10-29T04:12:07.404Z,12.10
2022-10-29T04:14:34.971Z,12.01
2022-10-29T04:17:01.738Z,12.08
2022-10-29T04:19:28.436Z,12.07
2022-10-29T04:30:15.212Z,11.65
2022-10-29T04:32:41.829Z,11.96
2022-10-29T04:35:08.632Z,12.02
2022-10-29T04:37:35.264Z,12.02
2022-10-29T04:40:01.926Z,12.03
2022-10-29T04:42:28.616Z,12.07
2022-10-29T04:44:55.248Z,12.01
2022-10-29T04:47:21.915Z,11.93
2022-10-29T04:49:48.528Z,11.93
2022-10-29T04:52:15.207Z,12.01
2022-10-29T04:54:41.829Z,11.99
2022-10-29T04:57:08.506Z,11.97
2022-10-29T04:59:35.134Z,12.03
2022-10-29T05:02:01.748Z,12.05
2022-10-29T05:04:29.457Z,12.08
2022-10-29T05:06:56.139Z,11.87
2022-10-29T05:09:22.785Z,11.97
2022-10-29T05:11:49.568Z,11.96
2022-10-29T05:14:16.192Z,11.97
2022-10-29T05:16:42.873Z,11.97
2022-10-29T05:19:09.616Z,11.98
2022-10-29T05:21:36.235Z,11.93
2022-10-29T05:24:02.912Z,11.99
2022-10-29T05:26:32.574Z,12.15
2022-10-29T05:28:59.288Z,12.28
2022-10-29T05:31:26.003Z,12.35
2022-10-29T05:33:55.573Z,12.41
2022-10-29T05:36:22.896Z,12.27
2022-10-29T05:38:49.561Z,12.28
2022-10-29T05:41:16.365Z,12.48
2022-10-29T05:43:43.174Z,12.34
2022-10-29T05:46:09.768Z,12.50
2022-10-29T05:48:36.453Z,12.41
2022-10-29T05:51:04.426Z,12.31
2022-10-29T05:53:31.196Z,12.08
2022-10-29T05:55:59.029Z,12.10
2022-10-29T05:58:25.736Z,11.99
2022-10-29T06:00:52.387Z,12.06
2022-10-29T06:03:21.009Z,12.10
2022-10-29T06:05:48.998Z,11.98
2022-10-29T06:08:15.942Z,12.05
2022-10-29T06:10:42.597Z,11.95
2022-10-29T06:13:11.505Z,12.15
2022-10-29T06:15:38.192Z,12.21
2022-10-29T06:18:04.876Z,12.13
2022-10-29T06:20:31.528Z,12.25
2022-10-29T06:22:59.361Z,12.24
2022-10-29T06:25:26.998Z,12.40
2022-10-29T06:28:05.594Z,12.46
2022-10-29T06:30:33.860Z,12.36
2022-10-29T06:33:00.854Z,12.37
2022-10-29T06:35:28.342Z,12.49
2022-10-29T06:37:55.914Z,12.52
2022-10-29T06:40:23.179Z,12.23
2022-10-29T06:42:49.974Z,12.50
2022-10-29T06:45:16.859Z,12.51
2022-10-29T06:47:45.467Z,12.50
2022-10-29T06:50:13.778Z,12.46
2022-10-29T06:52:40.446Z,12.19
2022-10-29T06:55:08.216Z,12.38
2022-10-29T06:57:35.441Z,12.45
2022-10-29T07:00:05.727Z,12.51
2022-10-29T07:02:35.640Z,12.53
2022-10-29T07:05:02.416Z,12.54
2022-10-29T07:07:29.600Z,12.52
2022-10-29T07:09:56.521Z,12.61
2022-10-29T07:12:23.231Z,12.68
2022-10-29T07:14:49.884Z,12.70
2022-10-29T07:17:16.501Z,12.80
2022-10-29T07:19:43.199Z,12.68
2022-10-29T07:22:09.869Z,13.01
2022-10-29T07:24:36.501Z,12.99
2022-10-29T07:27:03.192Z,13.22
2022-10-29T07:29:29.876Z,13.24
2022-10-29T07:31:56.558Z,13.70
2022-10-29T07:34:23.206Z,14.02
2022-10-29T07:36:49.907Z,14.32
2022-10-29T07:39:17.252Z,14.67
2022-10-29T07:41:43.970Z,14.96
2022-10-29T07:44:11.064Z,15.39
2022-10-29T07:46:37.737Z,15.74
2022-10-29T07:49:04.528Z,15.94
2022-10-29T07:51:31.257Z,16.22
2022-10-29T07:53:57.929Z,16.10
2022-10-29T07:56:24.659Z,16.30
2022-10-29T07:58:51.321Z,16.43
2022-10-29T08:01:18.105Z,16.32
2022-10-29T08:03:45.014Z,16.42
2022-10-29T08:06:11.801Z,16.34
2022-10-29T08:08:38.481Z,16.60
2022-10-29T08:11:05.645Z,16.57
2022-10-29T08:13:32.662Z,16.55
2022-10-29T08:15:59.348Z,16.49
2022-10-29T08:18:26.444Z,16.43
2022-10-29T08:20:53.241Z,16.49
2022-10-29T08:23:19.974Z,16.54
2022-10-29T08:25:46.727Z,16.42
2022-10-29T08:28:15.402Z,16.68
2022-10-29T08:30:44.044Z,16.66
2022-10-29T08:33:11.265Z,16.73
2022-10-29T08:35:38.208Z,17.06
2022-10-29T08:38:04.989Z,17.36
2022-10-29T08:41:06.877Z,17.55
2022-10-29T08:43:44.535Z,17.43
2022-10-29T08:46:25.060Z,17.44
2022-10-29T08:48:57.466Z,18.29
2022-10-29T08:51:34.333Z,18.90
2022-10-29T08:54:25.581Z,18.79
2022-10-29T08:56:59.320Z,18.85
2022-10-29T08:59:31.612Z,18.79
2022-10-29T09:01:58.558Z,18.87
2022-10-29T09:04:28.736Z,19.27
2022-10-29T09:07:04.685Z,19.52
2022-10-29T09:09:35.091Z,19.40
2022-10-29T09:12:30.354Z,19.80
2022-10-29T09:15:36.551Z,19.21
2022-10-29T09:18:35.519Z,18.85
2022-10-29T09:21:12.068Z,18.98
2022-10-29T09:24:00.624Z,19.29
2022-10-29T09:26:38.668Z,18.95
2022-10-29T09:29:45.970Z,19.07
2022-10-29T09:32:22.186Z,19.49
2022-10-29T09:34:56.519Z,19.82
2022-10-29T09:37:44.018Z,20.26
2022-10-29T09:40:28.545Z,20.52
2022-10-29T09:42:55.827Z,21.03
2022-10-29T09:45:30.201Z,21.66
2022-10-29T09:48:16.028Z,22.11
2022-10-29T09:51:00.809Z,22.44
2022-10-29T09:53:27.605Z,22.70
2022-10-29T09:55:54.706Z,22.63
2022-10-29T09:58:27.040Z,22.77
2022-10-29T10:00:55.114Z,22.91
2022-10-29T10:03:28.863Z,23.18
2022-10-29T10:06:10.313Z,23.33
2022-10-29T10:08:58.786Z,23.54
2022-10-29T10:11:30.227Z,23.59
2022-10-29T10:13:58.950Z,23.65
2022-10-29T10:16:32.461Z,23.61
2022-10-29T10:18:59.393Z,23.83
2022-10-29T10:21:29.133Z,24.00
2022-10-29T10:24:00.140Z,23.94
2022-10-29T10:26:39.295Z,23.37
2022-10-29T10:29:19.207Z,23.40
2022-10-29T10:31:49.757Z,23.56
2022-10-29T10:34:23.927Z,23.42
2022-10-29T10:37:07.200Z,23.35
2022-10-29T10:39:41.788Z,23.70
2022-10-29T10:42:36.939Z,23.94
2022-10-29T10:45:14.573Z,24.44
2022-10-29T10:47:45.916Z,24.78
2022-10-29T10:50:20.458Z,24.80
2022-10-29T10:52:47.616Z,24.97
2022-10-29T10:55:31.329Z,24.96
2022-10-29T10:58:20.176Z,25.00
2022-10-29T11:01:23.149Z,25.30
2022-10-29T11:04:05.183Z,24.94
2022-10-29T11:06:36.298Z,24.51
2022-10-29T11:09:02.937Z,24.23
2022-10-29T11:11:34.764Z,23.93
2022-10-29T11:14:09.961Z,23.44
2022-10-29T11:16:47.137Z,23.43
2022-10-29T11:19:16.751Z,23.43
2022-10-29T11:21:49.440Z,23.89
2022-10-29T11:24:39.754Z,24.25
2022-10-29T11:27:33.759Z,24.71
2022-10-29T11:30:09.679Z,24.55
2022-10-29T11:33:06.276Z,24.74
2022-10-29T11:35:45.792Z,24.67
2022-10-29T11:38:27.648Z,24.77
2022-10-29T11:41:07.643Z,24.74
2022-10-29T11:43:34.425Z,24.37
2022-10-29T11:46:43.318Z,24.12
2022-10-29T11:49:25.109Z,23.89
2022-10-29T11:52:14.972Z,24.08
2022-10-29T11:54:47.424Z,24.45
2022-10-29T11:57:20.018Z,25.14
2022-10-29T12:00:04.848Z,25.76
2022-10-29T12:02:39.168Z,26.06
2022-10-29T12:05:08.611Z,26.10
2022-10-29T12:07:56.509Z,25.82
2022-10-29T12:10:44.877Z,25.54
2022-10-29T12:13:28.979Z,25.17
2022-10-29T12:15:58.719Z,24.72
2022-10-29T12:18:41.612Z,24.35
2022-10-29T12:21:08.455Z,24.34
2022-10-29T12:23:54.710Z,24.38
2022-10-29T12:26:33.656Z,24.33
2022-10-29T12:29:18.021Z,24.22
2022-10-29T12:32:10.611Z,23.77
2022-10-29T12:35:10.321Z,24.44
2022-10-29T12:38:15.955Z,24.37
2022-10-29T12:40:45.145Z,24.28
2022-10-29T12:43:23.529Z,24.27
2022-10-29T12:46:20.131Z,24.15
2022-10-29T12:49:08.044Z,23.92
2022-10-29T12:51:58.891Z,24.28
2022-10-29T12:54:28.318Z,24.49
2022-10-29T12:56:57.286Z,24.32
2022-10-29T12:59:23.944Z,24.47
2022-10-29T13:02:12.131Z,24.78
2022-10-29T13:04:38.600Z,25.09
2022-10-29T13:07:23.233Z,25.19
2022-10-29T13:10:27.034Z,24.85
2022-10-29T13:12:59.600Z,24.57
2022-10-29T13:15:37.003Z,24.35
2022-10-29T13:18:27.647Z,24.32
2022-10-29T13:20:55.440Z,24.31
2022-10-29T13:23:22.039Z,24.03
2022-10-29T13:25:55.217Z,23.86
2022-10-29T13:28:21.813Z,23.85
2022-10-29T13:30:53.890Z,23.82
2022-10-29T13:33:23.356Z,23.85
2022-10-29T13:36:00.427Z,23.86
2022-10-29T13:39:05.303Z,23.93
2022-10-29T13:41:44.569Z,23.96
2022-10-29T13:44:11.285Z,24.02
2022-10-29T13:47:00.444Z,24.06
2022-10-29T13:49:38.183Z,23.84
2022-10-29T13:52:19.033Z,23.75
2022-10-29T13:55:02.134Z,23.55
2022-10-29T13:57:51.932Z,23.51
2022-10-29T14:00:20.373Z,23.58
2022-10-29T14:03:14.873Z,23.53
2022-10-29T14:05:47.010Z,23.55
2022-10-29T14:09:12.001Z,23.50
2022-10-29T14:11:42.672Z,23.43
2022-10-29T14:14:29.371Z,23.31
2022-10-29T14:17:16.527Z,23.19
2022-10-29T14:19:48.739Z,23.20
2022-10-29T14:22:39.012Z,23.14
2022-10-29T14:25:24.207Z,22.90
2022-10-29T14:28:17.514Z,22.62
2022-10-29T14:30:46.502Z,22.42
2022-10-29T14:33:19.346Z,22.31
2022-10-29T14:35:46.864Z,22.17
2022-10-29T14:38:14.879Z,22.31
2022-10-29T14:40:45.414Z,22.23
2022-10-29T14:43:22.937Z,22.07
2022-10-29T14:45:49.837Z,22.00
2022-10-29T14:48:18.651Z,21.96
2022-10-29T14:50:49.507Z,21.99
2022-10-29T14:53:27.480Z,21.78
2022-10-29T14:55:54.378Z,21.57
2022-10-29T15:01:00.493Z,21.23
2022-10-29T15:03:31.254Z,21.06
2022-10-29T15:06:20.055Z,21.05
2022-10-29T15:08:57.080Z,20.88
2022-10-29T15:11:34.471Z,20.99
2022-10-29T15:14:02.655Z,20.95
2022-10-29T15:16:30.748Z,20.86
2022-10-29T15:18:58.700Z,20.49
2022-10-29T15:21:33.041Z,20.55
2022-10-29T15:24:06.507Z,20.49
2022-10-29T15:26:35.800Z,20.37
2022-10-29T15:29:10.554Z,20.26
2022-10-29T15:31:49.678Z,20.32
2022-10-29T15:34:21.406Z,20.19
2022-10-29T15:36:51.062Z,20.01
2022-10-29T15:39:29.335Z,20.06
2022-10-29T15:41:59.488Z,19.86
2022-10-29T15:44:26.138Z,19.94
2022-10-29T15:46:58.806Z,19.89
2022-10-29T15:49:32.452Z,19.79
2022-10-29T15:52:00.800Z,19.66
2022-10-29T15:54:28.540Z,19.40
2022-10-29T15:56:55.318Z,19.26
2022-10-29T15:59:25.757Z,19.42
2022-10-29T16:01:52.747Z,19.40
2022-10-29T16:04:19.645Z,19.21
2022-10-29T16:06:46.385Z,19.34
2022-10-29T16:09:20.761Z,19.31
2022-10-29T16:11:48.373Z,19.29
2022-10-29T16:14:15.162Z,19.18
2022-10-29T16:16:41.925Z,19.17
2022-10-29T16:19:08.722Z,18.85
2022-10-29T16:21:35.658Z,18.92
2022-10-29T16:24:02.408Z,18.84
2022-10-29T16:26:29.631Z,18.87
2022-10-29T16:28:56.671Z,18.76
2022-10-29T16:31:28.501Z,18.80
2022-10-29T16:33:57.946Z,18.72
2022-10-29T16:36:25.056Z,18.70
2022-10-29T16:38:51.762Z,18.59
2022-10-29T16:41:20.052Z,18.45
2022-10-29T16:43:47.611Z,18.42
2022-10-29T16:46:15.000Z,18.39
2022-10-29T16:48:42.181Z,18.22
2022-10-29T16:51:09.097Z,18.19
2022-10-29T16:53:35.899Z,18.12
2022-10-29T16:56:03.429Z,18.01
2022-10-29T16:58:30.495Z,17.96
2022-10-29T17:01:05.521Z,17.89
2022-10-29T17:03:33.319Z,17.60
2022-10-29T17:06:08.385Z,17.69
2022-10-29T17:08:36.840Z,17.70
2022-10-29T17:11:06.457Z,17.71
2022-10-29T17:13:34.186Z,17.58
2022-10-29T17:16:00.985Z,17.60
2022-10-29T17:18:27.825Z,17.65
2022-10-29T17:20:58.766Z,17.60
2022-10-29T17:23:26.121Z,17.41
2022-10-29T17:25:57.575Z,17.57
2022-10-29T17:28:26.286Z,17.39
2022-10-29T17:30:52.949Z,17.55
2022-10-29T17:33:20.197Z,17.56
2022-10-29T17:35:47.444Z,17.40
2022-10-29T17:38:14.320Z,17.31
2022-10-29T17:40:43.752Z,17.35
2022-10-29T17:43:10.649Z,17.13
2022-10-29T17:45:37.845Z,17.29
2022-10-29T17:48:04.997Z,17.18
2022-10-29T17:50:31.998Z,17.24
2022-10-29T17:52:58.984Z,17.25
2022-10-29T17:55:25.931Z,17.34
2022-10-29T17:57:52.985Z,17.27
2022-10-29T18:00:19.761Z,17.45
2022-10-29T18:02:50.705Z,17.43
2022-10-29T18:05:18.197Z,17.40
2022-10-29T18:07:44.991Z,17.39
2022-10-29T18:10:11.831Z,17.27
2022-10-29T18:12:38.769Z,17.34
2022-10-29T18:15:05.903Z,17.19
2022-10-29T18:17:33.938Z,16.99
2022-10-29T18:20:00.760Z,17.22
2022-10-29T18:22:28.101Z,17.15
2022-10-29T18:24:55.033Z,17.04
2022-10-29T18:27:21.992Z,16.87
2022-10-29T18:29:48.770Z,16.96
2022-10-29T18:32:16.041Z,16.90
2022-10-29T18:34:43.056Z,16.69
2022-10-29T18:37:10.260Z,16.52
2022-10-29T18:39:37.099Z,16.67
2022-10-29T18:42:04.051Z,16.67
2022-10-29T18:44:31.144Z,16.64
2022-10-29T18:46:58.149Z,16.62
2022-10-29T18:49:24.989Z,16.58
2022-10-29T18:51:53.453Z,16.49
2022-10-29T18:54:20.428Z,16.47
2022-10-29T18:56:47.278Z,16.17
2022-10-29T18:59:14.177Z,16.12
2022-10-29T19:01:41.614Z,16.23
2022-10-29T19:04:11.453Z,16.14
2022-10-29T19:06:38.451Z,16.14
2022-10-29T19:09:08.605Z,16.14
2022-10-29T19:11:36.193Z,16.14
2022-10-29T19:14:06.172Z,16.10
2022-10-29T19:16:33.598Z,16.12
2022-10-29T19:21:36.548Z,15.96
2022-10-29T19:24:04.587Z,16.01
2022-10-29T19:26:33.572Z,16.04
2022-10-29T19:29:02.415Z,15.98
2022-10-29T19:31:31.356Z,15.94
2022-10-29T19:34:00.826Z,15.87
2022-10-29T19:36:29.397Z,15.98
2022-10-29T19:38:56.356Z,15.89
2022-10-29T19:41:23.608Z,15.82
2022-10-29T19:43:50.537Z,15.69
2022-10-29T19:46:24.296Z,15.74
2022-10-29T19:48:52.621Z,15.64
2022-10-29T19:51:20.637Z,15.59
2022-10-29T19:53:48.141Z,15.57
2022-10-29T19:56:16.065Z,15.50
2022-10-29T19:58:43.122Z,15.43
2022-10-29T20:01:18.419Z,15.41
2022-10-29T20:03:46.419Z,15.39
2022-10-29T20:06:13.761Z,15.28
2022-10-29T20:08:40.485Z,15.35
2022-10-29T20:11:07.559Z,15.10
2022-10-29T20:13:34.715Z,15.16
2022-10-29T20:16:10.329Z,15.31
2022-10-29T20:18:38.263Z,15.26
2022-10-29T20:23:37.559Z,15.31
2022-10-29T20:26:04.657Z,15.31
2022-10-29T20:28:31.420Z,15.09
2022-10-29T20:31:24.733Z,15.18
2022-10-29T20:33:52.924Z,15.31
2022-10-29T20:36:20.690Z,15.32
2022-10-29T20:38:51.967Z,15.25
2022-10-29T20:41:19.467Z,15.19
2022-10-29T20:43:50.517Z,15.09
2022-10-29T20:46:17.192Z,15.27
2022-10-29T20:48:43.856Z,15.24
2022-10-29T20:51:12.084Z,15.18
2022-10-29T20:53:39.033Z,15.18
2022-10-29T20:56:08.204Z,15.03
2022-10-29T20:58:37.763Z,15.15
2022-10-29T21:01:08.850Z,15.08
2022-10-29T21:03:36.126Z,15.16
2022-10-29T21:06:04.830Z,15.19
2022-10-29T21:08:31.738Z,15.11
2022-10-29T21:11:00.067Z,15.04
2022-10-29T21:13:27.787Z,15.17
2022-10-29T21:15:55.138Z,14.98
2022-10-29T21:18:22.374Z,15.13
2022-10-29T21:20:49.496Z,14.97
2022-10-29T21:23:19.917Z,15.01
2022-10-29T21:25:53.942Z,14.92
2022-10-29T21:28:20.806Z,14.89
2022-10-29T21:30:47.539Z,14.86
2022-10-29T21:33:14.201Z,14.92
2022-10-29T21:35:41.039Z,14.42
2022-10-29T21:38:07.894Z,14.96
2022-10-29T21:40:34.589Z,14.96
2022-10-29T21:43:01.278Z,14.98
2022-10-29T21:45:28.009Z,14.83
2022-10-29T21:47:54.664Z,14.94
2022-10-29T21:50:21.345Z,14.91
2022-10-29T21:52:48.045Z,14.89
2022-10-29T21:55:14.938Z,14.81
2022-10-29T21:57:44.843Z,14.78
2022-10-29T22:00:14.104Z,14.74
2022-10-29T22:02:40.833Z,14.56
2022-10-29T22:05:08.131Z,14.70
2022-10-29T22:07:35.001Z,14.68
2022-10-29T22:10:02.066Z,14.60
2022-10-29T22:12:28.874Z,14.49
2022-10-29T22:14:55.788Z,14.49
2022-10-29T22:17:22.431Z,14.56
2022-10-29T22:19:49.923Z,14.47
2022-10-29T22:22:16.763Z,14.37
2022-10-29T22:24:43.436Z,14.33
2022-10-29T22:27:10.310Z,14.14
2022-10-29T22:29:36.968Z,14.01
2022-10-29T22:32:05.565Z,14.28
2022-10-29T22:34:32.293Z,14.25
2022-10-29T22:36:58.985Z,14.21
2022-10-29T22:39:26.222Z,14.23
2022-10-29T22:41:53.266Z,14.13
2022-10-29T22:44:19.978Z,14.17
2022-10-29T22:46:46.698Z,13.99
2022-10-29T22:49:13.427Z,14.09
2022-10-29T22:51:40.077Z,13.88
2022-10-29T22:54:06.956Z,13.99
2022-10-29T22:56:36.167Z,13.96
2022-10-29T22:59:04.962Z,13.93
2022-10-29T23:01:38.667Z,13.90
2022-10-29T23:04:08.876Z,13.87
2022-10-29T23:06:36.639Z,13.85
2022-10-29T23:09:03.422Z,13.82
2022-10-29T23:11:32.201Z,13.79
2022-10-29T23:14:00.722Z,13.75
2022-10-29T23:16:30.029Z,13.70
2022-10-29T23:18:59.781Z,13.71
2022-10-29T23:21:26.881Z,13.75
2022-10-29T23:23:54.503Z,13.73
2022-10-29T23:26:23.131Z,13.71
2022-10-29T23:28:50.572Z,13.65
2022-10-29T23:31:22.918Z,13.60
2022-10-29T23:33:51.842Z,13.59
2022-10-29T23:36:20.406Z,13.53
2022-10-29T23:38:47.333Z,13.47
2022-10-29T23:41:14.095Z,13.28
2022-10-29T23:43:40.853Z,13.27
2022-10-29T23:46:07.559Z,13.22
2022-10-29T23:48:34.315Z,13.19
2022-10-29T23:51:01.035Z,13.16
2022-10-29T23:53:27.703Z,13.16
2022-10-29T23:55:54.396Z,13.13
2022-10-29T23:58:21.312Z,13.08
